sensor_id;sensor_type;location;lat;lon;timestamp;P1;durP1;ratioP1;P2;durP2;ratioP2
55025;SDS011;40925;45.666;18.994;2022-11-15T00:01:44;73.07;;;38.53;;
55025;SDS011;40925;45.666;18.994;2022-11-15T00:04:10;66.32;;;35.17;;
55025;SDS011;40925;45.666;18.994;2022-11-15T00:06:35;65.38;;;37.85;;
55025;SDS011;40925;45.666;18.994;2022-11-15T00:09:01;62.65;;;34.92;;
55025;SDS011;40925;45.666;18.994;2022-11-15T00:11:27;55.70;;;32.15;;
55025;SDS011;40925;45.666;18.994;2022-11-15T00:13:56;60.08;;;35.47;;
55025;SDS011;40925;45.666;18.994;2022-11-15T00:16:23;49.55;;;30.95;;
55025;SDS011;40925;45.666;18.994;2022-11-15T00:18:49;47.15;;;27.98;;
55025;SDS011;40925;45.666;18.994;2022-11-15T00:21:16;49.17;;;29.83;;
55025;SDS011;40925;45.666;18.994;2022-11-15T00:23:42;51.28;;;29.40;;
55025;SDS011;40925;45.666;18.994;2022-11-15T00:26:12;45.30;;;28.08;;
55025;SDS011;40925;45.666;18.994;2022-11-15T00:28:38;50.83;;;28.73;;
55025;SDS011;40925;45.666;18.994;2022-11-15T00:31:05;49.70;;;29.48;;
55025;SDS011;40925;45.666;18.994;2022-11-15T00:33:34;47.95;;;29.25;;
55025;SDS011;40925;45.666;18.994;2022-11-15T00:36:03;49.97;;;28.95;;
55025;SDS011;40925;45.666;18.994;2022-11-15T00:38:32;49.15;;;28.50;;
55025;SDS011;40925;45.666;18.994;2022-11-15T00:40:58;45.45;;;28.02;;
55025;SDS011;40925;45.666;18.994;2022-11-15T00:43:24;52.33;;;29.75;;
55025;SDS011;40925;45.666;18.994;2022-11-15T00:45:50;50.65;;;30.00;;
55025;SDS011;40925;45.666;18.994;2022-11-15T00:48:16;48.90;;;28.38;;
55025;SDS011;40925;45.666;18.994;2022-11-15T00:50:41;50.78;;;29.58;;
55025;SDS011;40925;45.666;18.994;2022-11-15T00:53:07;52.08;;;30.00;;
55025;SDS011;40925;45.666;18.994;2022-11-15T00:55:32;50.42;;;29.73;;
55025;SDS011;40925;45.666;18.994;2022-11-15T00:57:58;47.55;;;28.48;;
55025;SDS011;40925;45.666;18.994;2022-11-15T01:00:24;50.70;;;29.92;;
55025;SDS011;40925;45.666;18.994;2022-11-15T01:02:49;49.22;;;28.83;;
55025;SDS011;40925;45.666;18.994;2022-11-15T01:05:15;52.47;;;30.05;;
55025;SDS011;40925;45.666;18.994;2022-11-15T01:07:41;48.70;;;28.92;;
55025;SDS011;40925;45.666;18.994;2022-11-15T01:10:07;53.75;;;29.10;;
55025;SDS011;40925;45.666;18.994;2022-11-15T01:12:33;49.42;;;28.00;;
55025;SDS011;40925;45.666;18.994;2022-11-15T01:15:00;47.88;;;27.33;;
55025;SDS011;40925;45.666;18.994;2022-11-15T01:17:26;49.45;;;28.63;;
55025;SDS011;40925;45.666;18.994;2022-11-15T01:19:51;45.08;;;27.13;;
55025;SDS011;40925;45.666;18.994;2022-11-15T01:22:17;45.78;;;26.58;;
55025;SDS011;40925;45.666;18.994;2022-11-15T01:24:43;48.67;;;27.50;;
55025;SDS011;40925;45.666;18.994;2022-11-15T01:27:09;47.17;;;27.65;;
55025;SDS011;40925;45.666;18.994;2022-11-15T01:29:34;43.92;;;26.55;;
55025;SDS011;40925;45.666;18.994;2022-11-15T01:32:00;45.72;;;27.17;;
55025;SDS011;40925;45.666;18.994;2022-11-15T01:34:26;47.13;;;27.90;;
55025;SDS011;40925;45.666;18.994;2022-11-15T01:36:52;44.90;;;27.67;;
55025;SDS011;40925;45.666;18.994;2022-11-15T01:39:17;46.58;;;27.90;;
55025;SDS011;40925;45.666;18.994;2022-11-15T01:41:43;47.25;;;27.40;;
55025;SDS011;40925;45.666;18.994;2022-11-15T01:46:56;45.58;;;27.40;;
55025;SDS011;40925;45.666;18.994;2022-11-15T01:49:24;47.35;;;27.67;;
55025;SDS011;40925;45.666;18.994;2022-11-15T01:51:52;46.10;;;27.63;;
55025;SDS011;40925;45.666;18.994;2022-11-15T01:54:19;48.17;;;28.08;;
55025;SDS011;40925;45.666;18.994;2022-11-15T01:56:50;44.13;;;27.25;;
55025;SDS011;40925;45.666;18.994;2022-11-15T01:59:38;46.15;;;27.48;;
55025;SDS011;40925;45.666;18.994;2022-11-15T02:02:07;45.78;;;27.48;;
55025;SDS011;40925;45.666;18.994;2022-11-15T02:04:38;46.58;;;28.30;;
55025;SDS011;40925;45.666;18.994;2022-11-15T02:07:06;44.45;;;26.67;;
55025;SDS011;40925;45.666;18.994;2022-11-15T02:09:35;45.50;;;28.55;;
55025;SDS011;40925;45.666;18.994;2022-11-15T02:12:02;46.55;;;26.80;;
55025;SDS011;40925;45.666;18.994;2022-11-15T02:14:28;46.28;;;27.98;;
55025;SDS011;40925;45.666;18.994;2022-11-15T02:17:01;42.42;;;26.73;;
55025;SDS011;40925;45.666;18.994;2022-11-15T02:25:09;44.40;;;27.00;;
55025;SDS011;40925;45.666;18.994;2022-11-15T02:28:16;44.35;;;26.63;;
55025;SDS011;40925;45.666;18.994;2022-11-15T02:36:18;49.15;;;28.23;;
55025;SDS011;40925;45.666;18.994;2022-11-15T02:41:54;44.40;;;26.63;;
55025;SDS011;40925;45.666;18.994;2022-11-15T02:44:31;49.85;;;29.65;;
55025;SDS011;40925;45.666;18.994;2022-11-15T02:47:04;44.35;;;27.20;;
55025;SDS011;40925;45.666;18.994;2022-11-15T02:49:39;47.63;;;28.95;;
55025;SDS011;40925;45.666;18.994;2022-11-15T02:52:08;46.63;;;28.35;;
55025;SDS011;40925;45.666;18.994;2022-11-15T02:54:34;46.78;;;28.50;;
55025;SDS011;40925;45.666;18.994;2022-11-15T02:57:35;47.17;;;27.92;;
55025;SDS011;40925;45.666;18.994;2022-11-15T03:02:36;45.30;;;28.05;;
55025;SDS011;40925;45.666;18.994;2022-11-15T03:16:11;44.50;;;27.55;;
55025;SDS011;40925;45.666;18.994;2022-11-15T03:18:45;44.10;;;27.25;;
55025;SDS011;40925;45.666;18.994;2022-11-15T03:21:17;45.20;;;27.17;;
55025;SDS011;40925;45.666;18.994;2022-11-15T03:23:46;46.95;;;27.85;;
55025;SDS011;40925;45.666;18.994;2022-11-15T03:26:14;45.40;;;27.60;;
55025;SDS011;40925;45.666;18.994;2022-11-15T03:28:47;47.35;;;28.23;;
55025;SDS011;40925;45.666;18.994;2022-11-15T03:31:16;50.10;;;29.08;;
55025;SDS011;40925;45.666;18.994;2022-11-15T03:34:03;46.95;;;28.90;;
55025;SDS011;40925;45.666;18.994;2022-11-15T03:36:32;46.10;;;27.58;;
55025;SDS011;40925;45.666;18.994;2022-11-15T03:39:00;45.17;;;27.98;;
55025;SDS011;40925;45.666;18.994;2022-11-15T03:41:35;47.63;;;28.38;;
55025;SDS011;40925;45.666;18.994;2022-11-15T03:44:39;47.78;;;28.70;;
55025;SDS011;40925;45.666;18.994;2022-11-15T03:47:12;49.80;;;29.77;;
55025;SDS011;40925;45.666;18.994;2022-11-15T03:49:51;48.63;;;28.75;;
55025;SDS011;40925;45.666;18.994;2022-11-15T03:52:21;48.45;;;29.85;;
55025;SDS011;40925;45.666;18.994;2022-11-15T03:54:48;47.35;;;28.20;;
55025;SDS011;40925;45.666;18.994;2022-11-15T03:57:19;48.63;;;28.80;;
55025;SDS011;40925;45.666;18.994;2022-11-15T03:59:44;46.42;;;28.10;;
55025;SDS011;40925;45.666;18.994;2022-11-15T04:02:11;43.90;;;27.08;;
55025;SDS011;40925;45.666;18.994;2022-11-15T04:04:37;47.60;;;28.02;;
55025;SDS011;40925;45.666;18.994;2022-11-15T04:07:03;48.72;;;28.60;;
55025;SDS011;40925;45.666;18.994;2022-11-15T04:09:29;51.58;;;30.52;;
55025;SDS011;40925;45.666;18.994;2022-11-15T04:11:55;48.50;;;29.33;;
55025;SDS011;40925;45.666;18.994;2022-11-15T04:14:20;46.63;;;29.50;;
55025;SDS011;40925;45.666;18.994;2022-11-15T04:16:46;47.75;;;27.90;;
55025;SDS011;40925;45.666;18.994;2022-11-15T04:19:11;48.75;;;29.10;;
55025;SDS011;40925;45.666;18.994;2022-11-15T04:21:55;45.25;;;27.15;;
55025;SDS011;40925;45.666;18.994;2022-11-15T04:24:39;45.63;;;28.20;;
55025;SDS011;40925;45.666;18.994;2022-11-15T04:27:05;47.47;;;27.77;;
55025;SDS011;40925;45.666;18.994;2022-11-15T04:29:31;49.38;;;29.98;;
55025;SDS011;40925;45.666;18.994;2022-11-15T04:32:00;46.30;;;28.92;;
55025;SDS011;40925;45.666;18.994;2022-11-15T04:34:29;45.05;;;27.08;;
55025;SDS011;40925;45.666;18.994;2022-11-15T04:36:55;46.25;;;27.60;;
55025;SDS011;40925;45.666;18.994;2022-11-15T04:39:36;49.78;;;28.95;;
55025;SDS011;40925;45.666;18.994;2022-11-15T04:42:02;47.22;;;29.50;;
55025;SDS011;40925;45.666;18.994;2022-11-15T04:44:28;50.85;;;30.35;;
55025;SDS011;40925;45.666;18.994;2022-11-15T04:46:53;52.40;;;31.20;;
55025;SDS011;40925;45.666;18.994;2022-11-15T04:49:19;50.30;;;29.92;;
55025;SDS011;40925;45.666;18.994;2022-11-15T04:51:45;48.35;;;30.30;;
55025;SDS011;40925;45.666;18.994;2022-11-15T04:54:11;46.83;;;28.20;;
55025;SDS011;40925;45.666;18.994;2022-11-15T04:56:36;46.47;;;28.15;;
55025;SDS011;40925;45.666;18.994;2022-11-15T04:59:02;46.78;;;28.00;;
55025;SDS011;40925;45.666;18.994;2022-11-15T05:01:28;43.40;;;27.02;;
55025;SDS011;40925;45.666;18.994;2022-11-15T05:03:53;47.25;;;28.65;;
55025;SDS011;40925;45.666;18.994;2022-11-15T05:06:38;43.15;;;26.00;;
55025;SDS011;40925;45.666;18.994;2022-11-15T05:09:03;48.55;;;29.20;;
55025;SDS011;40925;45.666;18.994;2022-11-15T05:11:29;48.05;;;29.02;;
55025;SDS011;40925;45.666;18.994;2022-11-15T05:13:55;46.33;;;28.55;;
55025;SDS011;40925;45.666;18.994;2022-11-15T05:16:21;46.20;;;27.70;;
55025;SDS011;40925;45.666;18.994;2022-11-15T05:18:50;55.72;;;32.78;;
55025;SDS011;40925;45.666;18.994;2022-11-15T05:21:16;49.05;;;29.65;;
55025;SDS011;40925;45.666;18.994;2022-11-15T05:23:42;46.10;;;28.00;;
55025;SDS011;40925;45.666;18.994;2022-11-15T05:26:08;47.35;;;29.52;;
55025;SDS011;40925;45.666;18.994;2022-11-15T05:28:34;56.15;;;32.60;;
55025;SDS011;40925;45.666;18.994;2022-11-15T05:31:05;61.30;;;35.45;;
55025;SDS011;40925;45.666;18.994;2022-11-15T05:33:40;132.25;;;59.58;;
55025;SDS011;40925;45.666;18.994;2022-11-15T05:38:42;61.65;;;35.83;;
55025;SDS011;40925;45.666;18.994;2022-11-15T05:41:09;69.68;;;38.75;;
55025;SDS011;40925;45.666;18.994;2022-11-15T05:43:35;55.97;;;32.80;;
55025;SDS011;40925;45.666;18.994;2022-11-15T05:46:04;202.38;;;92.32;;
55025;SDS011;40925;45.666;18.994;2022-11-15T05:48:30;92.50;;;47.33;;
55025;SDS011;40925;45.666;18.994;2022-11-15T05:50:57;52.40;;;30.75;;
55025;SDS011;40925;45.666;18.994;2022-11-15T05:53:23;62.50;;;35.03;;
55025;SDS011;40925;45.666;18.994;2022-11-15T05:55:51;49.90;;;29.75;;
55025;SDS011;40925;45.666;18.994;2022-11-15T05:58:17;49.20;;;30.67;;
55025;SDS011;40925;45.666;18.994;2022-11-15T06:00:44;51.67;;;30.35;;
55025;SDS011;40925;45.666;18.994;2022-11-15T06:03:10;54.92;;;32.60;;
55025;SDS011;40925;45.666;18.994;2022-11-15T06:05:35;52.67;;;32.60;;
55025;SDS011;40925;45.666;18.994;2022-11-15T06:08:01;99.47;;;51.45;;
55025;SDS011;40925;45.666;18.994;2022-11-15T06:10:27;83.93;;;45.63;;
55025;SDS011;40925;45.666;18.994;2022-11-15T06:12:59;61.58;;;37.03;;
55025;SDS011;40925;45.666;18.994;2022-11-15T06:15:26;69.10;;;40.35;;
55025;SDS011;40925;45.666;18.994;2022-11-15T06:17:51;63.35;;;37.30;;
55025;SDS011;40925;45.666;18.994;2022-11-15T06:20:17;55.20;;;31.23;;
55025;SDS011;40925;45.666;18.994;2022-11-15T06:22:43;53.53;;;32.00;;
55025;SDS011;40925;45.666;18.994;2022-11-15T06:25:08;53.47;;;31.63;;
55025;SDS011;40925;45.666;18.994;2022-11-15T06:27:34;56.58;;;32.20;;
55025;SDS011;40925;45.666;18.994;2022-11-15T06:30:00;49.92;;;29.65;;
55025;SDS011;40925;45.666;18.994;2022-11-15T06:32:26;58.72;;;32.15;;
55025;SDS011;40925;45.666;18.994;2022-11-15T06:34:51;53.35;;;30.30;;
55025;SDS011;40925;45.666;18.994;2022-11-15T06:37:17;69.78;;;38.22;;
55025;SDS011;40925;45.666;18.994;2022-11-15T06:39:43;52.30;;;30.52;;
55025;SDS011;40925;45.666;18.994;2022-11-15T06:42:08;50.53;;;30.17;;
55025;SDS011;40925;45.666;18.994;2022-11-15T06:44:34;72.90;;;37.45;;
55025;SDS011;40925;45.666;18.994;2022-11-15T06:47:00;95.53;;;45.72;;
55025;SDS011;40925;45.666;18.994;2022-11-15T06:49:25;70.40;;;37.47;;
55025;SDS011;40925;45.666;18.994;2022-11-15T06:51:51;63.50;;;35.55;;
55025;SDS011;40925;45.666;18.994;2022-11-15T06:54:17;62.33;;;36.25;;
55025;SDS011;40925;45.666;18.994;2022-11-15T06:56:42;66.70;;;38.40;;
55025;SDS011;40925;45.666;18.994;2022-11-15T06:59:08;67.82;;;37.95;;
55025;SDS011;40925;45.666;18.994;2022-11-15T07:01:33;54.60;;;34.45;;
55025;SDS011;40925;45.666;18.994;2022-11-15T07:03:59;53.63;;;33.78;;
55025;SDS011;40925;45.666;18.994;2022-11-15T07:06:25;52.80;;;31.48;;
55025;SDS011;40925;45.666;18.994;2022-11-15T07:08:50;70.85;;;38.75;;
55025;SDS011;40925;45.666;18.994;2022-11-15T07:11:16;100.78;;;49.45;;
55025;SDS011;40925;45.666;18.994;2022-11-15T07:13:42;69.65;;;38.65;;
55025;SDS011;40925;45.666;18.994;2022-11-15T07:16:08;58.75;;;33.15;;
55025;SDS011;40925;45.666;18.994;2022-11-15T07:18:35;53.65;;;31.73;;
55025;SDS011;40925;45.666;18.994;2022-11-15T07:21:03;66.10;;;36.83;;
55025;SDS011;40925;45.666;18.994;2022-11-15T07:23:30;66.85;;;37.55;;
55025;SDS011;40925;45.666;18.994;2022-11-15T07:25:56;58.10;;;32.97;;
55025;SDS011;40925;45.666;18.994;2022-11-15T07:28:23;55.15;;;32.80;;
55025;SDS011;40925;45.666;18.994;2022-11-15T07:30:49;52.10;;;31.38;;
55025;SDS011;40925;45.666;18.994;2022-11-15T07:33:15;63.80;;;36.50;;
55025;SDS011;40925;45.666;18.994;2022-11-15T07:35:41;75.50;;;43.88;;
55025;SDS011;40925;45.666;18.994;2022-11-15T07:38:07;63.90;;;38.25;;
55025;SDS011;40925;45.666;18.994;2022-11-15T07:40:33;62.08;;;38.05;;
55025;SDS011;40925;45.666;18.994;2022-11-15T07:43:03;56.92;;;35.10;;
55025;SDS011;40925;45.666;18.994;2022-11-15T07:45:31;59.20;;;35.40;;
55025;SDS011;40925;45.666;18.994;2022-11-15T07:47:59;53.97;;;32.80;;
55025;SDS011;40925;45.666;18.994;2022-11-15T07:50:25;50.85;;;32.20;;
55025;SDS011;40925;45.666;18.994;2022-11-15T07:52:58;49.47;;;31.60;;
55025;SDS011;40925;45.666;18.994;2022-11-15T07:55:25;57.95;;;37.88;;
55025;SDS011;40925;45.666;18.994;2022-11-15T07:57:52;54.13;;;34.05;;
55025;SDS011;40925;45.666;18.994;2022-11-15T08:00:18;51.60;;;32.30;;
55025;SDS011;40925;45.666;18.994;2022-11-15T08:02:44;46.55;;;31.02;;
55025;SDS011;40925;45.666;18.994;2022-11-15T08:05:10;41.92;;;27.60;;
55025;SDS011;40925;45.666;18.994;2022-11-15T08:07:36;41.90;;;28.00;;
55025;SDS011;40925;45.666;18.994;2022-11-15T08:32:09;57.40;;;38.42;;
55025;SDS011;40925;45.666;18.994;2022-11-15T08:44:18;58.10;;;37.30;;
55025;SDS011;40925;45.666;18.994;2022-11-15T08:46:47;65.55;;;39.75;;
55025;SDS011;40925;45.666;18.994;2022-11-15T08:49:13;66.45;;;41.50;;
55025;SDS011;40925;45.666;18.994;2022-11-15T08:51:38;64.03;;;39.03;;
55025;SDS011;40925;45.666;18.994;2022-11-15T08:54:04;72.00;;;44.13;;
55025;SDS011;40925;45.666;18.994;2022-11-15T08:56:30;73.22;;;42.05;;
55025;SDS011;40925;45.666;18.994;2022-11-15T08:58:56;68.60;;;41.10;;
55025;SDS011;40925;45.666;18.994;2022-11-15T09:01:22;68.30;;;40.35;;
55025;SDS011;40925;45.666;18.994;2022-11-15T09:03:48;61.83;;;38.25;;
55025;SDS011;40925;45.666;18.994;2022-11-15T09:06:14;63.35;;;38.13;;
55025;SDS011;40925;45.666;18.994;2022-11-15T09:08:40;64.13;;;39.03;;
55025;SDS011;40925;45.666;18.994;2022-11-15T09:11:06;66.15;;;39.95;;
55025;SDS011;40925;45.666;18.994;2022-11-15T09:13:33;65.03;;;38.15;;
55025;SDS011;40925;45.666;18.994;2022-11-15T09:16:00;65.60;;;38.97;;
55025;SDS011;40925;45.666;18.994;2022-11-15T09:18:26;70.30;;;40.65;;
55025;SDS011;40925;45.666;18.994;2022-11-15T09:20:55;69.40;;;42.80;;
55025;SDS011;40925;45.666;18.994;2022-11-15T09:23:22;66.55;;;40.80;;
55025;SDS011;40925;45.666;18.994;2022-11-15T09:25:48;76.80;;;45.83;;
55025;SDS011;40925;45.666;18.994;2022-11-15T09:28:14;67.13;;;40.28;;
55025;SDS011;40925;45.666;18.994;2022-11-15T09:30:40;78.38;;;45.85;;
55025;SDS011;40925;45.666;18.994;2022-11-15T09:33:07;67.03;;;40.97;;
55025;SDS011;40925;45.666;18.994;2022-11-15T09:35:33;70.60;;;41.50;;
55025;SDS011;40925;45.666;18.994;2022-11-15T09:37:59;74.55;;;43.70;;
55025;SDS011;40925;45.666;18.994;2022-11-15T09:40:25;88.38;;;50.88;;
55025;SDS011;40925;45.666;18.994;2022-11-15T09:45:48;76.28;;;44.95;;
55025;SDS011;40925;45.666;18.994;2022-11-15T09:51:04;86.07;;;47.20;;
55025;SDS011;40925;45.666;18.994;2022-11-15T09:53:47;67.28;;;40.65;;
55025;SDS011;40925;45.666;18.994;2022-11-15T09:56:20;68.18;;;40.72;;
55025;SDS011;40925;45.666;18.994;2022-11-15T10:01:20;69.18;;;41.65;;
55025;SDS011;40925;45.666;18.994;2022-11-15T10:04:08;69.00;;;41.03;;
55025;SDS011;40925;45.666;18.994;2022-11-15T10:06:34;74.32;;;43.47;;
55025;SDS011;40925;45.666;18.994;2022-11-15T10:09:09;70.03;;;42.05;;
55025;SDS011;40925;45.666;18.994;2022-11-15T10:11:42;67.97;;;41.42;;
55025;SDS011;40925;45.666;18.994;2022-11-15T10:14:10;70.53;;;40.17;;
55025;SDS011;40925;45.666;18.994;2022-11-15T10:24:41;62.20;;;36.60;;
55025;SDS011;40925;45.666;18.994;2022-11-15T10:27:13;57.35;;;36.35;;
55025;SDS011;40925;45.666;18.994;2022-11-15T10:29:47;91.15;;;57.45;;
55025;SDS011;40925;45.666;18.994;2022-11-15T10:32:15;61.40;;;37.25;;
55025;SDS011;40925;45.666;18.994;2022-11-15T10:34:42;60.75;;;37.20;;
55025;SDS011;40925;45.666;18.994;2022-11-15T10:37:08;54.55;;;34.45;;
55025;SDS011;40925;45.666;18.994;2022-11-15T10:39:34;55.70;;;34.15;;
55025;SDS011;40925;45.666;18.994;2022-11-15T10:42:18;55.00;;;34.63;;
55025;SDS011;40925;45.666;18.994;2022-11-15T10:44:51;65.38;;;39.42;;
55025;SDS011;40925;45.666;18.994;2022-11-15T10:47:30;61.25;;;36.83;;
55025;SDS011;40925;45.666;18.994;2022-11-15T10:50:01;61.72;;;38.75;;
55025;SDS011;40925;45.666;18.994;2022-11-15T10:52:51;61.80;;;39.45;;
55025;SDS011;40925;45.666;18.994;2022-11-15T10:57:48;64.55;;;40.30;;
55025;SDS011;40925;45.666;18.994;2022-11-15T11:00:27;83.97;;;49.03;;
55025;SDS011;40925;45.666;18.994;2022-11-15T11:03:04;76.95;;;46.03;;
55025;SDS011;40925;45.666;18.994;2022-11-15T11:06:03;68.07;;;41.78;;
55025;SDS011;40925;45.666;18.994;2022-11-15T11:08:30;76.38;;;44.85;;
55025;SDS011;40925;45.666;18.994;2022-11-15T11:10:58;62.50;;;37.38;;
55025;SDS011;40925;45.666;18.994;2022-11-15T11:13:25;86.65;;;46.17;;
55025;SDS011;40925;45.666;18.994;2022-11-15T11:16:39;61.35;;;37.20;;
55025;SDS011;40925;45.666;18.994;2022-11-15T11:24:25;80.78;;;44.97;;
55025;SDS011;40925;45.666;18.994;2022-11-15T11:38:22;86.22;;;46.45;;
55025;SDS011;40925;45.666;18.994;2022-11-15T11:41:10;107.57;;;51.70;;
55025;SDS011;40925;45.666;18.994;2022-11-15T11:49:04;89.25;;;45.90;;
55025;SDS011;40925;45.666;18.994;2022-11-15T11:54:32;178.98;;;95.75;;
55025;SDS011;40925;45.666;18.994;2022-11-15T11:57:13;87.07;;;47.03;;
55025;SDS011;40925;45.666;18.994;2022-11-15T11:59:51;86.45;;;44.50;;
55025;SDS011;40925;45.666;18.994;2022-11-15T12:02:27;95.38;;;50.95;;
55025;SDS011;40925;45.666;18.994;2022-11-15T12:04:56;93.68;;;51.33;;
55025;SDS011;40925;45.666;18.994;2022-11-15T12:07:31;69.22;;;40.35;;
55025;SDS011;40925;45.666;18.994;2022-11-15T12:12:39;73.55;;;46.10;;
55025;SDS011;40925;45.666;18.994;2022-11-15T12:15:16;72.63;;;42.97;;
55025;SDS011;40925;45.666;18.994;2022-11-15T12:17:47;74.28;;;43.50;;
55025;SDS011;40925;45.666;18.994;2022-11-15T12:28:17;116.00;;;62.72;;
55025;SDS011;40925;45.666;18.994;2022-11-15T12:30:53;87.97;;;49.80;;
55025;SDS011;40925;45.666;18.994;2022-11-15T12:33:34;95.22;;;52.28;;
55025;SDS011;40925;45.666;18.994;2022-11-15T12:36:01;99.05;;;52.70;;
55025;SDS011;40925;45.666;18.994;2022-11-15T12:41:26;93.22;;;49.75;;
55025;SDS011;40925;45.666;18.994;2022-11-15T12:43:53;131.88;;;64.20;;
55025;SDS011;40925;45.666;18.994;2022-11-15T12:49:01;90.97;;;49.25;;
55025;SDS011;40925;45.666;18.994;2022-11-15T13:02:30;93.13;;;49.20;;
55025;SDS011;40925;45.666;18.994;2022-11-15T13:28:01;95.45;;;52.70;;
55025;SDS011;40925;45.666;18.994;2022-11-15T13:30:35;91.45;;;50.25;;
55025;SDS011;40925;45.666;18.994;2022-11-15T13:33:09;98.40;;;53.75;;
55025;SDS011;40925;45.666;18.994;2022-11-15T13:35:41;98.78;;;51.85;;
55025;SDS011;40925;45.666;18.994;2022-11-15T13:38:17;104.45;;;53.40;;
55025;SDS011;40925;45.666;18.994;2022-11-15T13:40:49;102.30;;;54.75;;
55025;SDS011;40925;45.666;18.994;2022-11-15T13:43:19;108.75;;;56.08;;
55025;SDS011;40925;45.666;18.994;2022-11-15T13:48:43;150.93;;;84.88;;
55025;SDS011;40925;45.666;18.994;2022-11-15T13:51:15;139.60;;;75.30;;
55025;SDS011;40925;45.666;18.994;2022-11-15T13:53:46;151.40;;;78.38;;
55025;SDS011;40925;45.666;18.994;2022-11-15T13:56:18;173.48;;;94.28;;
55025;SDS011;40925;45.666;18.994;2022-11-15T13:58:45;134.02;;;68.40;;
55025;SDS011;40925;45.666;18.994;2022-11-15T14:01:16;138.38;;;72.38;;
55025;SDS011;40925;45.666;18.994;2022-11-15T14:03:53;122.65;;;62.75;;
55025;SDS011;40925;45.666;18.994;2022-11-15T14:06:22;154.93;;;83.65;;
55025;SDS011;40925;45.666;18.994;2022-11-15T14:09:00;130.65;;;66.93;;
55025;SDS011;40925;45.666;18.994;2022-11-15T14:11:52;121.13;;;59.72;;
55025;SDS011;40925;45.666;18.994;2022-11-15T14:14:20;131.60;;;63.05;;
55025;SDS011;40925;45.666;18.994;2022-11-15T14:16:49;117.97;;;58.92;;
55025;SDS011;40925;45.666;18.994;2022-11-15T14:27:38;137.38;;;67.07;;
55025;SDS011;40925;45.666;18.994;2022-11-15T14:30:05;128.30;;;63.22;;
55025;SDS011;40925;45.666;18.994;2022-11-15T14:33:11;121.38;;;59.22;;
55025;SDS011;40925;45.666;18.994;2022-11-15T14:35:23;125.20;;;61.88;;
55025;SDS011;40925;45.666;18.994;2022-11-15T14:37:49;147.00;;;70.50;;
55025;SDS011;40925;45.666;18.994;2022-11-15T14:40:19;133.48;;;63.92;;
55025;SDS011;40925;45.666;18.994;2022-11-15T14:42:46;138.50;;;63.75;;
55025;SDS011;40925;45.666;18.994;2022-11-15T14:45:15;144.93;;;69.93;;
55025;SDS011;40925;45.666;18.994;2022-11-15T14:47:46;140.93;;;66.47;;
55025;SDS011;40925;45.666;18.994;2022-11-15T14:50:13;145.18;;;71.55;;
55025;SDS011;40925;45.666;18.994;2022-11-15T14:52:43;140.25;;;63.00;;
55025;SDS011;40925;45.666;18.994;2022-11-15T14:55:20;160.30;;;74.10;;
55025;SDS011;40925;45.666;18.994;2022-11-15T14:57:51;207.43;;;95.88;;
55025;SDS011;40925;45.666;18.994;2022-11-15T15:00:17;175.23;;;79.00;;
55025;SDS011;40925;45.666;18.994;2022-11-15T15:02:45;185.23;;;85.18;;
55025;SDS011;40925;45.666;18.994;2022-11-15T15:05:22;171.43;;;74.68;;
55025;SDS011;40925;45.666;18.994;2022-11-15T15:07:49;162.13;;;67.30;;
55025;SDS011;40925;45.666;18.994;2022-11-15T15:10:18;174.18;;;72.20;;
55025;SDS011;40925;45.666;18.994;2022-11-15T15:12:44;169.07;;;67.63;;
55025;SDS011;40925;45.666;18.994;2022-11-15T15:15:13;178.30;;;72.72;;
55025;SDS011;40925;45.666;18.994;2022-11-15T15:17:45;185.35;;;82.30;;
55025;SDS011;40925;45.666;18.994;2022-11-15T15:20:10;214.80;;;94.85;;
55025;SDS011;40925;45.666;18.994;2022-11-15T15:22:36;182.63;;;79.63;;
55025;SDS011;40925;45.666;18.994;2022-11-15T15:25:03;173.57;;;74.22;;
55025;SDS011;40925;45.666;18.994;2022-11-15T15:27:39;175.45;;;74.03;;
55025;SDS011;40925;45.666;18.994;2022-11-15T15:30:08;187.25;;;83.40;;
55025;SDS011;40925;45.666;18.994;2022-11-15T15:32:34;185.18;;;81.22;;
55025;SDS011;40925;45.666;18.994;2022-11-15T15:35:00;193.02;;;83.95;;
55025;SDS011;40925;45.666;18.994;2022-11-15T15:37:25;223.77;;;88.97;;
55025;SDS011;40925;45.666;18.994;2022-11-15T15:39:52;183.95;;;75.45;;
55025;SDS011;40925;45.666;18.994;2022-11-15T15:42:18;183.05;;;68.32;;
55025;SDS011;40925;45.666;18.994;2022-11-15T15:44:45;294.52;;;109.80;;
55025;SDS011;40925;45.666;18.994;2022-11-15T15:47:12;361.67;;;128.50;;
55025;SDS011;40925;45.666;18.994;2022-11-15T15:49:51;264.42;;;104.70;;
55025;SDS011;40925;45.666;18.994;2022-11-15T15:52:16;184.70;;;72.72;;
55025;SDS011;40925;45.666;18.994;2022-11-15T15:54:42;189.57;;;80.38;;
55025;SDS011;40925;45.666;18.994;2022-11-15T15:57:09;169.75;;;66.65;;
55025;SDS011;40925;45.666;18.994;2022-11-15T15:59:37;215.45;;;96.97;;
55025;SDS011;40925;45.666;18.994;2022-11-15T16:02:03;195.85;;;78.68;;
55025;SDS011;40925;45.666;18.994;2022-11-15T16:04:29;263.83;;;113.40;;
55025;SDS011;40925;45.666;18.994;2022-11-15T16:06:58;250.90;;;107.53;;
55025;SDS011;40925;45.666;18.994;2022-11-15T16:09:24;213.40;;;90.95;;
55025;SDS011;40925;45.666;18.994;2022-11-15T16:12:09;240.82;;;107.55;;
55025;SDS011;40925;45.666;18.994;2022-11-15T16:14:35;311.27;;;105.65;;
55025;SDS011;40925;45.666;18.994;2022-11-15T16:17:01;210.48;;;79.75;;
55025;SDS011;40925;45.666;18.994;2022-11-15T16:19:27;202.98;;;76.93;;
55025;SDS011;40925;45.666;18.994;2022-11-15T16:21:52;210.52;;;87.13;;
55025;SDS011;40925;45.666;18.994;2022-11-15T16:24:18;283.08;;;117.55;;
55025;SDS011;40925;45.666;18.994;2022-11-15T16:26:45;290.67;;;120.15;;
55025;SDS011;40925;45.666;18.994;2022-11-15T16:29:12;245.65;;;101.78;;
55025;SDS011;40925;45.666;18.994;2022-11-15T16:31:38;192.43;;;73.68;;
55025;SDS011;40925;45.666;18.994;2022-11-15T16:34:03;194.60;;;76.30;;
55025;SDS011;40925;45.666;18.994;2022-11-15T16:36:30;225.75;;;92.50;;
55025;SDS011;40925;45.666;18.994;2022-11-15T16:38:58;203.88;;;81.10;;
55025;SDS011;40925;45.666;18.994;2022-11-15T16:41:24;200.43;;;85.50;;
55025;SDS011;40925;45.666;18.994;2022-11-15T16:43:50;182.18;;;68.68;;
55025;SDS011;40925;45.666;18.994;2022-11-15T16:46:23;199.18;;;77.40;;
55025;SDS011;40925;45.666;18.994;2022-11-15T16:48:50;219.57;;;92.88;;
55025;SDS011;40925;45.666;18.994;2022-11-15T16:51:18;212.98;;;79.68;;
55025;SDS011;40925;45.666;18.994;2022-11-15T16:53:44;189.98;;;71.13;;
55025;SDS011;40925;45.666;18.994;2022-11-15T16:56:30;242.85;;;98.80;;
55025;SDS011;40925;45.666;18.994;2022-11-15T16:58:56;266.08;;;110.13;;
55025;SDS011;40925;45.666;18.994;2022-11-15T17:01:26;256.60;;;102.13;;
55025;SDS011;40925;45.666;18.994;2022-11-15T17:03:54;254.48;;;98.55;;
55025;SDS011;40925;45.666;18.994;2022-11-15T17:06:20;239.60;;;95.35;;
55025;SDS011;40925;45.666;18.994;2022-11-15T17:08:47;225.77;;;87.53;;